Terminal Aerodrome Forecast
Issued by NWS Albuquerque, NM

Home | Current Version | Previous Version | Text Only | Print | Product List | Glossary On
Versions: 1 2 3 4 5 6 7 8 9 10 11 12
000
FTUS45 KABQ 222300 RRA
TAFABQ
TAF
KABQ 222340Z 2300/2324 VRB05KT P6SM BKN250
     FM231000 25011KT P6SM BKN120
     FM231300 29012KT P6SM SCT050
     FM231600 32022G31KT P6SM FEW250=

USA.gov is the U.S. government's official web portal to all federal, state and local government web resources and services.